Time;durP1;ratioP1;P1;durP2;ratioP2;P2;SDS_P1;SDS_P2;PMS_P1;PMS_P2;Temp;Humidity;BMP_temperature;BMP_pressure;BME280_temperature;BME280_humidity;BME280_pressure;Samples;Min_cycle;Max_cycle;Signal;HPM_P1;HPM_P2
2022/03/15 00:00:24;;;;;;;14.47;5.50;;;1.20;58.60;;;-0.81;54.73;101909.81;10249368;28;96638;-79
2022/03/15 00:05:27;;;;;;;9.87;5.13;;;1.20;60.00;;;-0.84;55.33;101898.63;10272776;28;96592;-78
2022/03/15 00:10:30;;;;;;;13.67;6.00;;;1.10;60.80;;;-0.83;56.16;101898.59;10287683;28;96573;-78
2022/03/15 00:15:35;;;;;;;12.50;5.77;;;1.10;60.80;;;-0.76;55.91;101890.53;10273064;28;96600;-78
2022/03/15 00:20:38;;;;;;;12.50;5.67;;;1.10;59.00;;;-0.76;56.21;101900.97;10288133;28;96555;-78
2022/03/15 00:25:42;;;;;;;13.43;5.87;;;1.10;61.70;;;-0.76;56.52;101887.94;10265277;28;96891;-78
2022/03/15 00:30:45;;;;;;;13.17;5.43;;;1.10;60.90;;;-0.73;56.35;101893.03;10254509;28;96604;-78
2022/03/15 00:35:48;;;;;;;13.83;5.93;;;1.10;62.50;;;-0.75;56.20;101887.03;10256195;28;96650;-78
2022/03/15 00:40:52;;;;;;;8.47;4.73;;;1.10;61.60;;;-0.77;56.05;101886.22;10251636;28;96478;-78
2022/03/15 00:45:58;;;;;;;15.90;5.90;;;1.10;61.00;;;-0.80;56.54;101884.56;10254875;28;96750;-78
2022/03/15 00:51:01;;;;;;;11.53;5.70;;;1.10;61.20;;;-0.82;56.53;101873.34;10272647;28;97376;-78
2022/03/15 00:56:04;;;;;;;15.07;6.57;;;1.00;61.50;;;-0.92;56.77;101871.94;10294417;28;96528;-78
2022/03/15 01:01:07;;;;;;;17.07;6.80;;;1.00;62.90;;;-0.99;56.63;101881.75;10277401;28;96587;-78
2022/03/15 01:06:10;;;;;;;13.00;6.00;;;0.90;62.20;;;-1.06;56.68;101874.19;10318572;28;97412;-78
2022/03/15 01:11:13;;;;;;;18.90;7.43;;;0.80;62.90;;;-1.10;57.23;101876.03;10255352;28;96442;-79
2022/03/15 01:16:17;;;;;;;16.60;7.63;;;0.80;63.00;;;-1.14;57.69;101867.47;10260738;28;98248;-79
2022/03/15 01:21:20;;;;;;;17.83;6.97;;;0.80;63.20;;;-1.20;57.58;101861.59;10295457;28;96448;-78
2022/03/15 01:26:23;;;;;;;17.17;7.90;;;0.70;62.50;;;-1.31;57.46;101858.53;10276432;28;96545;-78
2022/03/15 01:31:27;;;;;;;15.70;7.10;;;0.70;63.60;;;-1.37;58.14;101870.00;10256985;28;96587;-78
2022/03/15 01:36:30;;;;;;;18.23;8.30;;;0.60;63.80;;;-1.45;57.99;101872.84;10257470;28;96623;-78
2022/03/15 01:41:38;;;;;;;23.47;9.93;;;0.50;63.90;;;-1.50;58.49;101866.94;10240588;28;96649;-78
2022/03/15 01:46:41;;;;;;;26.70;10.10;;;0.50;64.50;;;-1.53;58.68;101863.56;10265610;28;96539;-78
2022/03/15 01:51:46;;;;;;;18.20;9.00;;;0.40;64.70;;;-1.57;58.46;101865.41;10282804;28;96487;-78
2022/03/15 01:56:49;;;;;;;20.80;8.20;;;0.40;63.50;;;-1.61;58.86;101858.63;10314414;28;96594;-78
2022/03/15 02:01:53;;;;;;;19.57;7.77;;;0.40;64.80;;;-1.68;58.70;101846.66;10316325;28;97435;-78
2022/03/15 02:07:02;;;;;;;18.73;7.97;;;0.30;64.80;;;-1.71;58.68;101850.22;10372821;28;96892;-79
2022/03/15 02:12:06;;;;;;;19.83;7.13;;;0.30;64.60;;;-1.74;58.92;101859.88;10303372;28;96854;-79
2022/03/15 02:17:10;;;;;;;21.43;8.93;;;0.20;64.00;;;-1.78;58.83;101850.50;10327633;28;96642;-79
2022/03/15 02:22:14;;;;;;;20.10;8.90;;;0.20;64.80;;;-1.81;58.77;101853.19;10372704;28;96566;-79
2022/03/15 02:27:16;;;;;;;17.93;8.37;;;0.20;65.10;;;-1.84;58.99;101858.50;10327892;28;98626;-78
2022/03/15 02:32:20;;;;;;;19.30;9.00;;;0.10;65.40;;;-1.88;59.45;101862.94;10308096;28;96568;-77
2022/03/15 02:37:24;;;;;;;18.43;8.33;;;0.10;66.00;;;-1.94;59.61;101848.34;10277752;28;96621;-77
2022/03/15 02:42:27;;;;;;;18.70;7.83;;;0.00;65.80;;;-1.97;59.36;101853.66;10316121;28;96912;-78
2022/03/15 02:47:30;;;;;;;16.77;7.37;;;0.00;65.40;;;-1.96;59.66;101852.75;10294380;28;96794;-78
2022/03/15 02:52:34;;;;;;;18.03;6.83;;;0.00;66.10;;;-1.99;59.97;101854.59;10237561;28;96604;-77
2022/03/15 02:57:37;;;;;;;15.87;6.87;;;0.00;66.70;;;-2.01;59.65;101846.84;10239677;28;96713;-78
2022/03/15 03:02:40;;;;;;;14.07;7.20;;;0.00;65.50;;;-2.03;59.93;101848.66;10270733;28;96490;-76
2022/03/15 03:07:44;;;;;;;16.20;6.80;;;-0.10;66.60;;;-2.06;60.09;101863.50;10253612;28;96619;-77
2022/03/15 03:12:48;;;;;;;16.87;7.63;;;-0.10;67.40;;;-2.13;59.68;101862.00;10254245;28;96629;-78
2022/03/15 03:17:51;;;;;;;16.93;6.53;;;-0.10;66.30;;;-2.16;60.01;101868.13;10316305;28;97508;-78
2022/03/15 03:22:54;;;;;;;14.93;6.10;;;-0.10;65.00;;;-2.16;60.74;101875.94;10313122;28;96538;-78
2022/03/15 03:27:59;;;;;;;21.10;7.97;;;-0.20;66.80;;;-2.19;60.55;101887.31;10267651;28;96580;-78
2022/03/15 03:33:03;;;;;;;16.27;7.10;;;-0.20;66.30;;;-2.24;61.16;101888.34;10280908;28;96821;-77
2022/03/15 03:38:06;;;;;;;12.83;5.37;;;-0.20;67.60;;;-2.31;61.49;101887.69;10252065;28;97540;-81
2022/03/15 03:43:09;;;;;;;16.33;6.10;;;-0.20;66.30;;;-2.34;61.16;101887.78;10255717;28;96496;-78
2022/03/15 03:48:12;;;;;;;12.07;5.90;;;-0.30;67.20;;;-2.42;61.75;101897.53;10233834;28;97976;-78
2022/03/15 03:53:16;;;;;;;13.27;5.87;;;-0.40;67.60;;;-2.46;61.49;101896.78;10260584;28;96597;-78
2022/03/15 03:58:19;;;;;;;14.80;6.50;;;-0.40;67.00;;;-2.54;61.79;101896.13;10253643;28;96492;-78
2022/03/15 04:03:22;;;;;;;16.67;7.40;;;-0.50;67.50;;;-2.64;61.63;101894.69;10235877;28;96552;-78
2022/03/15 04:08:26;;;;;;;14.93;6.50;;;-0.50;68.50;;;-2.71;62.01;101887.94;10287137;28;96592;-78
2022/03/15 04:13:30;;;;;;;14.37;6.87;;;-0.60;69.00;;;-2.77;62.29;101888.09;10248920;28;96492;-78
2022/03/15 04:18:33;;;;;;;15.43;5.27;;;-0.70;69.10;;;-2.86;62.72;101883.16;10255926;28;97195;-77
2022/03/15 04:23:37;;;;;;;16.40;7.17;;;-0.70;69.00;;;-2.92;62.57;101896.34;10239984;28;96458;-78
2022/03/15 04:28:40;;;;;;;13.40;6.63;;;-0.80;67.90;;;-3.00;63.21;101897.41;10290696;28;96534;-80
2022/03/15 04:33:43;;;;;;;15.07;6.73;;;-0.90;69.50;;;-3.06;62.72;101909.69;10266179;28;96975;-78
2022/03/15 04:38:47;;;;;;;14.83;6.57;;;-0.90;69.20;;;-3.11;63.29;101912.41;10294876;28;96552;-78
2022/03/15 04:43:49;;;;;;;16.03;6.57;;;-1.00;68.20;;;-3.10;64.51;101913.28;10257020;28;96698;-79
2022/03/15 04:48:53;;;;;;;19.17;7.37;;;-1.00;67.70;;;-3.11;65.11;101917.63;10261408;28;96533;-79
2022/03/15 04:53:56;;;;;;;18.77;8.37;;;-1.10;68.50;;;-3.15;65.00;101931.59;10278584;28;96878;-79
2022/03/15 04:58:59;;;;;;;13.67;6.60;;;-1.10;71.80;;;-3.21;64.85;101931.72;10274521;28;96542;-79
2022/03/15 05:04:02;;;;;;;18.77;7.80;;;-1.10;74.10;;;-3.27;65.02;101930.13;10262605;28;96935;-79
2022/03/15 05:09:06;;;;;;;16.83;8.50;;;-1.20;72.40;;;-3.31;64.87;101927.63;10255116;28;96497;-79
2022/03/15 05:14:09;;;;;;;23.77;8.63;;;-1.20;72.30;;;-3.35;64.87;101932.06;10256411;28;96737;-79
2022/03/15 05:19:12;;;;;;;17.07;7.70;;;-1.20;71.80;;;-3.30;64.64;101932.81;10254748;28;97832;-79
2022/03/15 05:24:16;;;;;;;19.97;8.70;;;-1.20;73.10;;;-3.21;64.51;101933.47;10295068;28;96510;-79
2022/03/15 05:29:19;;;;;;;18.80;8.73;;;-1.20;72.00;;;-3.13;64.70;101921.97;10269490;28;96716;-78
2022/03/15 05:34:22;;;;;;;21.73;7.60;;;-1.10;73.00;;;-3.01;64.20;101920.81;10257100;28;96712;-78
2022/03/15 05:39:26;;;;;;;18.50;7.17;;;-1.10;72.50;;;-2.88;64.33;101926.56;10261123;28;96814;-78
2022/03/15 05:44:30;;;;;;;19.17;7.93;;;-1.00;72.70;;;-2.70;63.83;101919.16;10255387;28;96825;-78
2022/03/15 05:49:34;;;;;;;17.57;7.03;;;-0.80;71.30;;;-2.53;63.92;101913.47;10323150;28;97275;-78
2022/03/15 05:54:38;;;;;;;19.20;7.50;;;-0.70;71.60;;;-2.30;63.46;101909.34;10292742;28;96659;-78
2022/03/15 05:59:41;;;;;;;14.07;6.67;;;-0.50;71.10;;;-2.04;63.20;101908.59;10273372;28;97298;-79
2022/03/15 06:04:43;;;;;;;14.37;6.80;;;-0.30;70.80;;;-1.78;63.05;101900.84;10286791;28;96468;-77
2022/03/15 06:09:48;;;;;;;18.17;7.77;;;-0.10;72.00;;;-1.43;63.02;101898.91;10280879;28;96492;-78
2022/03/15 06:14:51;;;;;;;17.40;8.60;;;0.20;71.00;;;-1.15;62.55;101907.50;10267766;28;97392;-78
2022/03/15 06:19:54;;;;;;;27.10;10.20;;;0.50;70.30;;;-0.89;62.03;101906.63;10281085;28;98219;-78
2022/03/15 06:24:57;;;;;;;23.27;11.50;;;0.70;69.70;;;-0.66;61.06;101910.16;10283858;28;97084;-78
2022/03/15 06:30:01;;;;;;;28.33;14.13;;;0.90;69.30;;;-0.46;60.44;101901.66;10259827;28;96683;-78
2022/03/15 06:35:07;;;;;;;30.63;13.17;;;1.20;68.80;;;-0.26;59.92;101893.91;10258360;28;98318;-77
2022/03/15 06:40:12;;;;;;;36.43;14.07;;;1.40;68.50;;;-0.06;59.65;101894.03;10276843;28;96487;-78
2022/03/15 06:45:15;;;;;;;36.00;14.73;;;1.60;68.50;;;0.21;59.03;101905.19;10250366;28;96701;-78
2022/03/15 06:50:18;;;;;;;28.47;13.70;;;1.80;68.10;;;0.52;58.53;101898.72;10274951;28;97651;-78
2022/03/15 06:55:21;;;;;;;29.10;14.27;;;2.10;67.20;;;0.86;57.45;101892.13;10271310;28;98174;-78
2022/03/15 07:00:24;;;;;;;21.83;12.50;;;2.40;66.80;;;1.17;56.66;101887.28;10268210;28;96762;-78
2022/03/15 07:05:27;;;;;;;26.27;13.50;;;2.70;66.20;;;1.52;55.77;101879.63;10259095;28;96771;-77
2022/03/15 07:10:31;;;;;;;29.40;14.13;;;3.00;65.10;;;1.88;54.65;101864.84;10276627;28;96538;-77
2022/03/15 07:15:34;;;;;;;22.07;11.80;;;3.40;64.40;;;2.26;54.05;101864.78;10267361;28;96529;-77
2022/03/15 07:20:37;;;;;;;24.67;11.70;;;3.70;64.10;;;2.62;53.72;101866.56;10288982;28;96526;-78
2022/03/15 07:25:40;;;;;;;22.37;11.37;;;4.00;63.70;;;2.97;52.09;101861.31;10257820;28;96533;-76
2022/03/15 07:30:43;;;;;;;25.90;13.17;;;4.30;62.50;;;3.26;50.37;101863.28;10286087;28;96505;-77
2022/03/15 07:35:46;;;;;;;23.30;12.40;;;4.70;61.80;;;3.60;49.39;101869.34;10258218;28;96555;-77
2022/03/15 07:40:51;;;;;;;25.93;13.00;;;5.00;60.50;;;3.90;49.02;101873.00;10281927;28;96533;-77
2022/03/15 07:45:54;;;;;;;29.47;13.63;;;5.30;59.90;;;4.25;47.87;101875.41;10256866;28;96633;-77
2022/03/15 07:50:57;;;;;;;21.30;11.77;;;5.70;59.00;;;4.53;46.63;101875.56;10266737;28;96740;-78
2022/03/15 07:56:02;;;;;;;23.40;12.73;;;6.00;58.10;;;4.91;45.82;101875.09;10283808;28;97617;-77
2022/03/15 08:01:05;;;;;;;19.97;11.20;;;6.30;57.40;;;5.23;44.81;101877.63;10273712;28;96626;-77
2022/03/15 08:06:08;;;;;;;22.80;10.83;;;6.60;56.40;;;5.56;42.14;101870.28;10261257;28;96595;-77
2022/03/15 08:11:12;;;;;;;19.43;11.10;;;7.00;54.90;;;6.10;40.74;101857.22;10296022;28;96527;-78
2022/03/15 08:16:15;;;;;;;24.17;11.43;;;7.30;53.00;;;6.96;39.97;101852.44;10265269;28;97213;-77
2022/03/15 08:21:19;;;;;;;19.60;11.67;;;7.90;52.80;;;7.79;37.23;101855.41;10260017;28;96700;-77
2022/03/15 08:26:21;;;;;;;23.37;12.63;;;8.50;52.80;;;8.50;36.36;101852.97;10257198;28;96606;-77
2022/03/15 08:31:25;;;;;;;17.40;10.03;;;9.10;51.60;;;8.99;34.34;101847.47;10271273;28;96487;-78
2022/03/15 08:36:28;;;;;;;16.83;9.83;;;9.60;50.40;;;9.56;33.99;101835.09;10290967;28;96988;-77
2022/03/15 08:41:31;;;;;;;22.90;12.10;;;10.10;48.80;;;10.00;32.51;101826.22;10267119;28;98674;-78
2022/03/15 08:46:34;;;;;;;22.97;12.47;;;10.60;48.20;;;10.28;31.33;101830.16;10251316;28;96619;-78
2022/03/15 08:51:37;;;;;;;24.80;13.77;;;11.00;47.40;;;10.81;31.28;101824.84;10281696;28;98459;-77
2022/03/15 08:56:41;;;;;;;24.00;12.83;;;11.50;45.70;;;11.43;30.55;101823.91;10266995;28;96651;-78
2022/03/15 09:01:44;;;;;;;25.03;11.63;;;11.90;45.10;;;11.87;29.93;101797.88;10268567;28;96632;-78
2022/03/15 09:06:48;;;;;;;22.63;12.27;;;12.40;45.20;;;12.41;29.19;101793.00;10274463;28;96569;-78
2022/03/15 09:11:51;;;;;;;20.33;12.80;;;12.90;44.60;;;12.96;28.19;101778.06;10242792;28;97476;-78
2022/03/15 09:16:54;;;;;;;21.38;11.98;;;13.30;43.80;;;13.47;27.65;101768.72;10261396;28;96619;-78
2022/03/15 09:21:57;;;;;;;20.40;13.15;;;13.80;43.70;;;13.95;27.16;101759.56;10255370;28;96632;-78
2022/03/15 09:27:00;;;;;;;20.23;12.50;;;14.20;42.20;;;14.51;26.70;101752.22;10279316;28;96558;-79
2022/03/15 09:32:05;;;;;;;22.65;13.32;;;14.80;41.80;;;14.64;25.83;101748.16;10284197;28;96816;-79
2022/03/15 09:37:08;;;;;;;20.85;13.90;;;15.10;40.80;;;14.54;25.39;101736.72;10255219;28;96683;-78
2022/03/15 09:42:11;;;;;;;20.98;13.32;;;15.20;39.60;;;14.49;25.39;101739.03;10280917;28;96552;-78
2022/03/15 09:47:17;;;;;;;19.15;12.77;;;15.40;39.00;;;14.40;25.19;101742.63;10279637;28;96797;-78
2022/03/15 09:52:21;;;;;;;19.08;11.93;;;15.40;38.60;;;14.40;24.99;101732.75;10268223;28;97698;-79
2022/03/15 09:57:26;;;;;;;19.88;12.38;;;15.60;37.70;;;14.55;25.34;101725.03;10237324;28;96659;-78
2022/03/15 10:02:29;;;;;;;20.17;12.73;;;15.70;38.20;;;14.94;24.35;101712.06;10267930;28;98236;-79
2022/03/15 10:07:38;;;;;;;23.25;13.15;;;16.10;37.70;;;15.31;24.54;101699.31;10286967;28;96654;-79
2022/03/15 10:12:42;;;;;;;18.20;12.25;;;16.30;37.60;;;15.85;23.89;101687.25;10256198;28;96514;-78
2022/03/15 10:17:55;;;;;;;21.25;11.93;;;16.80;37.40;;;15.95;22.37;101690.63;10282116;28;96491;-78
2022/03/15 10:23:01;;;;;;;17.48;12.35;;;17.10;36.10;;;16.29;23.58;101684.22;10286720;28;96514;-78
2022/03/15 10:28:09;;;;;;;;;;;17.30;36.10;;;16.54;22.62;101676.97;10249859;28;96592;-78
2022/03/15 10:33:19;;;;;;;18.38;11.10;;;17.60;34.90;;;16.99;22.83;101671.00;10238663;28;98051;-79
2022/03/15 10:38:22;;;;;;;14.45;9.38;;;17.90;36.00;;;17.44;22.37;101652.47;10260054;28;97393;-78
2022/03/15 10:43:27;;;;;;;15.23;9.45;;;18.30;35.20;;;17.75;21.54;101642.56;10275987;28;96594;-79
2022/03/15 10:48:32;;;;;;;12.93;7.72;;;18.80;33.70;;;17.88;21.14;101640.09;10296080;28;96486;-78
2022/03/15 10:53:47;;;;;;;20.30;10.55;;;18.80;34.20;;;18.01;20.95;101622.50;10251986;28;96674;-78
2022/03/15 10:58:54;;;;;;;13.07;8.38;;;18.90;33.30;;;18.03;21.03;101602.47;10257745;28;97032;-79
2022/03/15 11:03:59;;;;;;;19.08;11.10;;;19.00;33.10;;;18.28;20.74;101583.38;10268099;28;96631;-79
2022/03/15 11:09:23;;;;;;;11.05;7.75;;;19.20;33.20;;;18.52;20.00;101572.34;10257836;28;96533;-78
2022/03/15 11:14:40;;;;;;;12.68;8.45;;;19.40;31.50;;;18.62;19.52;101559.44;10290652;28;96573;-79
2022/03/15 11:19:54;;;;;;;43.45;25.35;;;19.60;32.30;;;18.88;19.39;101555.41;10280651;28;96478;-78
2022/03/15 11:25:17;;;;;;;12.43;8.13;;;19.90;31.90;;;19.13;18.70;101534.34;10258088;28;97108;-78
2022/03/15 11:30:20;;;;;;;13.27;9.10;;;20.10;31.60;;;19.33;18.95;101535.38;10251889;28;96578;-79
2022/03/15 11:35:24;;;;;;;11.98;8.20;;;20.30;31.30;;;19.41;18.55;101529.84;10273176;28;96598;-78
2022/03/15 11:40:27;;;;;;;23.90;15.18;;;20.30;30.30;;;19.39;18.58;101509.53;10269647;28;98041;-78
2022/03/15 11:45:40;;;;;;;10.90;7.45;;;20.40;30.70;;;19.65;18.76;101492.75;10322176;28;96861;-78
2022/03/15 11:51:33;;;;;;;12.90;9.10;;;20.60;30.70;;;19.89;18.39;101477.97;10304625;28;96659;-78
2022/03/15 11:56:53;;;;;;;10.27;7.60;;;20.90;29.50;;;20.18;18.46;101472.34;10287151;28;97391;-79
2022/03/15 12:02:01;;;;;;;11.48;6.85;;;21.10;30.40;;;20.73;17.75;101450.75;10318832;22;97775;-78
2022/03/15 12:07:04;;;;;;;9.68;6.53;;;21.60;29.40;;;20.69;18.02;101447.66;10326303;28;98275;-79
2022/03/15 12:12:10;;;;;;;8.93;6.38;;;21.70;30.00;;;20.73;18.15;101434.56;10329675;28;96596;-77
2022/03/15 12:17:15;;;;;;;13.55;7.10;;;21.80;30.10;;;20.73;18.37;101421.88;10333045;28;96850;-77
2022/03/15 12:22:36;;;;;;;11.70;7.05;;;21.90;30.00;;;20.78;17.81;101410.47;10330413;28;96495;-78
2022/03/15 12:27:45;;;;;;;41.20;20.35;;;22.00;29.60;;;20.94;17.64;101399.25;10327018;28;96597;-78
2022/03/15 12:32:54;;;;;;;9.77;6.88;;;22.10;29.70;;;20.89;17.47;101388.25;10329192;28;96686;-77
2022/03/15 12:38:11;;;;;;;10.32;6.03;;;22.20;29.60;;;20.28;17.48;101385.59;10333261;28;96646;-77
2022/03/15 12:43:23;;;;;;;18.48;10.90;;;21.80;29.10;;;19.50;17.89;101388.53;10336011;28;96589;-77
2022/03/15 12:48:42;;;;;;;10.52;7.43;;;21.20;29.30;;;18.90;18.85;101387.22;10352996;28;96877;-75
2022/03/15 12:53:48;;;;;;;9.13;6.50;;;20.60;29.60;;;18.44;18.75;101379.50;10334320;28;96621;-75
2022/03/15 12:58:51;;;;;;;12.45;7.18;;;20.10;29.60;;;17.89;19.79;101364.78;10332598;28;96567;-75
2022/03/15 13:03:58;;;;;;;10.07;6.68;;;19.50;30.10;;;17.59;20.16;101360.41;10352202;28;96599;-75
2022/03/15 13:09:01;;;;;;;19.58;11.00;;;19.10;30.50;;;17.35;20.64;101358.84;10337551;28;96572;-75
2022/03/15 13:14:04;;;;;;;10.52;6.82;;;18.90;30.90;;;17.27;20.86;101342.78;10336234;28;96543;-75
2022/03/15 13:19:10;;;;;;;11.10;7.13;;;18.70;31.30;;;16.98;21.05;101335.53;10325551;28;96649;-83
2022/03/15 13:24:13;;;;;;;9.23;6.10;;;18.40;31.50;;;16.69;21.23;101329.03;10332351;28;96676;-79
2022/03/15 13:29:19;;;;;;;11.02;7.20;;;18.10;31.60;;;16.35;21.67;101331.31;10338175;28;96952;-77
2022/03/15 13:34:27;;;;;;;12.73;8.18;;;17.80;32.00;;;15.97;22.31;101325.84;10331484;28;96869;-77
2022/03/15 13:39:31;;;;;;;10.35;6.78;;;17.40;32.50;;;15.76;22.82;101316.53;10332701;28;96828;-78
2022/03/15 13:44:37;;;;;;;10.90;6.95;;;17.20;33.10;;;15.55;22.93;101318.97;10335410;28;96671;-78
2022/03/15 13:49:47;;;;;;;10.27;6.63;;;16.90;33.30;;;15.39;23.45;101310.97;10335293;28;98185;-78
2022/03/15 13:55:04;;;;;;;15.18;6.95;;;16.70;33.60;;;15.27;24.03;101307.81;10312974;28;96567;-78
2022/03/15 14:00:17;;;;;;;12.05;6.40;;;16.60;34.30;;;15.30;24.44;101295.94;10330452;28;96555;-77
2022/03/15 14:05:24;;;;;;;11.40;6.95;;;16.50;34.50;;;15.41;24.47;101287.50;10293852;28;97845;-78
2022/03/15 14:10:27;;;;;;;12.38;6.85;;;16.60;34.70;;;15.52;24.41;101273.75;10294334;28;96636;-78
2022/03/15 14:15:30;;;;;;;12.02;6.40;;;16.70;34.80;;;15.64;24.26;101267.03;10289519;28;98389;-78
2022/03/15 14:20:44;;;;;;;9.15;5.90;;;16.90;34.80;;;15.63;24.56;101261.84;10286478;28;96650;-78
2022/03/15 14:25:47;;;;;;;9.95;6.53;;;16.90;34.90;;;15.58;24.73;101254.28;10291892;28;96578;-78
2022/03/15 14:31:01;;;;;;;10.07;7.20;;;16.80;35.00;;;15.61;24.59;101251.28;10290934;28;96662;-79
2022/03/15 14:36:04;;;;;;;9.80;6.80;;;16.90;35.00;;;15.56;24.45;101242.94;10289497;28;96851;-79
2022/03/15 14:41:09;;;;;;;11.50;7.55;;;16.90;35.00;;;15.60;24.68;101233.53;10287573;28;96592;-79
2022/03/15 14:46:16;;;;;;;10.93;6.25;;;16.90;35.10;;;15.57;24.72;101223.16;10289704;28;97161;-79
2022/03/15 14:51:19;;;;;;;14.25;7.10;;;16.90;35.00;;;15.58;24.94;101215.97;10243561;28;98273;-78
2022/03/15 14:56:23;;;;;;;12.13;6.72;;;16.90;35.10;;;15.56;24.86;101202.75;10256804;28;96573;-78
2022/03/15 15:01:26;;;;;;;9.90;6.45;;;16.90;35.10;;;15.44;24.91;101223.72;10267979;28;97458;-78
2022/03/15 15:06:30;;;;;;;11.93;6.40;;;16.80;35.10;;;15.30;25.26;101211.09;10274146;28;96711;-78
2022/03/15 15:11:35;;;;;;;9.02;6.43;;;16.70;35.30;;;15.08;25.37;101218.03;10264724;28;96393;-78
2022/03/15 15:16:40;;;;;;;11.15;6.63;;;16.50;35.40;;;14.89;25.49;101216.56;10290092;28;96667;-78
2022/03/15 15:21:44;;;;;;;10.52;6.30;;;16.30;35.70;;;14.70;26.07;101216.97;10269659;28;98716;-78
2022/03/15 15:26:47;;;;;;;12.88;6.53;;;16.10;35.90;;;14.50;26.07;101221.81;10288492;28;97173;-78
2022/03/15 15:31:50;;;;;;;10.68;6.35;;;15.90;36.10;;;14.31;26.39;101227.47;10289107;28;96745;-78
2022/03/15 15:36:54;;;;;;;12.73;7.93;;;15.80;36.40;;;14.14;26.76;101224.78;10271853;28;98516;-78
2022/03/15 15:41:58;;;;;;;13.55;8.02;;;15.60;36.60;;;13.95;27.24;101224.28;10290775;28;96613;-78
2022/03/15 15:47:01;;;;;;;17.70;8.17;;;15.40;36.90;;;13.77;27.60;101213.72;10290019;28;97769;-78
2022/03/15 15:52:05;;;;;;;13.90;8.57;;;15.20;37.20;;;13.54;27.57;101198.31;10291498;28;96748;-78
2022/03/15 15:57:11;;;;;;;13.10;8.13;;;15.00;37.40;;;13.37;27.70;101193.91;10290647;28;96565;-77
2022/03/15 16:02:14;;;;;;;12.90;8.33;;;14.80;37.60;;;13.19;28.12;101185.97;10273474;28;96604;-77
2022/03/15 16:07:27;;;;;;;15.53;7.97;;;14.60;37.70;;;13.01;28.24;101180.72;10289114;28;96624;-76
2022/03/15 16:12:33;;;;;;;13.90;8.33;;;14.50;38.20;;;12.86;28.65;101182.31;10281854;28;96912;-77
2022/03/15 16:17:36;;;;;;;16.13;9.53;;;14.30;38.20;;;12.70;28.86;101175.06;10284096;28;96520;-78
2022/03/15 16:22:45;;;;;;;29.07;14.93;;;14.20;38.10;;;12.50;29.51;101176.28;10280920;28;96638;-79
2022/03/15 16:27:49;;;;;;;17.60;8.93;;;14.00;38.50;;;12.31;29.59;101166.66;10297276;28;96640;-79
2022/03/15 16:32:52;;;;;;;18.10;8.97;;;13.90;38.80;;;12.17;29.86;101168.03;10295880;28;96686;-79
2022/03/15 16:37:58;;;;;;;17.37;8.20;;;13.70;39.10;;;12.04;30.58;101160.44;10275517;28;98285;-85
2022/03/15 16:43:01;;;;;;;15.83;9.23;;;13.60;39.30;;;11.89;31.05;101164.66;10296814;28;96573;-79
2022/03/15 16:48:04;;;;;;;17.33;10.20;;;13.40;39.60;;;11.71;30.89;101158.47;10295053;28;96856;-83
2022/03/15 16:53:09;;;;;;;15.67;9.47;;;13.30;39.60;;;11.54;31.24;101144.13;10279912;28;96503;-81
2022/03/15 17:08:58;;;;;;;11.50;7.20;;;12.80;40.40;;;11.04;32.66;101136.63;10277933;28;97745;-82
2022/03/15 17:14:01;;;;;;;19.00;8.93;;;12.70;40.90;;;10.87;33.25;101124.94;10296593;28;96932;-82
2022/03/15 17:19:10;;;;;;;41.73;18.07;;;12.50;41.30;;;10.72;33.38;101139.69;10277320;28;98520;-82
2022/03/15 17:24:13;;;;;;;36.23;18.03;;;12.40;41.60;;;10.57;34.09;101134.00;10292869;28;96557;-81
2022/03/15 17:29:17;;;;;;;33.17;16.43;;;12.20;41.70;;;10.47;34.23;101127.03;10293110;28;96533;-79
2022/03/15 17:34:22;;;;;;;27.20;13.33;;;12.00;42.40;;;10.36;34.67;101104.13;10296586;28;96585;-80
2022/03/15 17:39:26;;;;;;;23.60;12.97;;;11.90;42.40;;;10.31;34.78;101098.41;10277396;28;97008;-78
2022/03/15 17:44:30;;;;;;;25.67;14.00;;;11.80;42.60;;;10.25;34.96;101107.78;10294493;28;96526;-82
2022/03/15 17:49:36;;;;;;;29.23;13.37;;;11.80;43.10;;;10.17;35.03;101108.47;10254335;28;97905;-79
2022/03/15 17:54:40;;;;;;;23.97;12.60;;;11.70;43.10;;;10.08;35.52;101111.19;10286463;28;96797;-79
2022/03/15 17:59:55;;;;;;;25.43;13.37;;;11.60;43.30;;;9.95;35.57;101106.13;10274574;28;96815;-79
2022/03/15 18:05:09;;;;;;;26.30;13.17;;;11.50;43.30;;;9.79;36.39;101105.88;10275640;28;96930;-78
2022/03/15 18:15:38;;;;;;;25.77;13.17;;;11.30;44.20;;;9.42;37.30;101108.41;10276920;28;96887;-79
2022/03/15 18:20:51;;;;;;;23.50;12.60;;;11.10;44.60;;;9.28;37.99;101107.81;10274256;28;96966;-79
2022/03/15 18:25:59;;;;;;;39.90;19.23;;;11.00;45.10;;;9.17;38.67;101094.66;10254020;28;97218;-81
2022/03/15 18:31:02;;;;;;;38.47;18.20;;;10.80;45.60;;;9.06;39.17;101086.84;10288263;28;97092;-80
2022/03/15 18:36:06;;;;;;;53.57;24.67;;;10.70;46.20;;;8.98;39.21;101087.50;10266530;28;98353;-80
2022/03/15 18:41:10;;;;;;;49.63;24.87;;;10.60;46.20;;;8.88;39.43;101088.47;10289949;28;98182;-80
2022/03/15 18:46:21;;;;;;;57.80;26.67;;;10.50;46.30;;;8.83;39.92;101071.16;10291874;28;98398;-80
2022/03/15 18:51:24;;;;;;;40.73;21.37;;;10.40;46.70;;;8.75;39.78;101072.78;10276165;28;96600;-80
2022/03/15 18:56:27;;;;;;;52.70;24.93;;;10.30;47.10;;;8.70;39.96;101061.78;10291402;28;96607;-80
2022/03/15 19:01:32;;;;;;;40.77;20.60;;;10.30;46.80;;;8.61;39.93;101059.91;10291234;28;96474;-80
2022/03/15 19:06:39;;;;;;;42.03;20.83;;;10.20;47.00;;;8.55;41.00;101066.59;10292974;28;97706;-79
2022/03/15 19:11:44;;;;;;;38.83;20.40;;;10.20;47.50;;;8.47;40.30;101047.88;10294956;28;96484;-79
2022/03/15 19:16:47;;;;;;;36.30;16.47;;;10.10;48.00;;;8.40;40.55;101070.59;10275910;28;96573;-79
2022/03/15 19:21:52;;;;;;;42.00;16.57;;;10.00;47.70;;;8.32;40.06;101050.00;10292373;28;96627;-79
2022/03/15 19:26:55;;;;;;;32.47;15.80;;;9.90;47.50;;;8.25;40.44;101040.91;10263595;28;96513;-80
2022/03/15 19:31:59;;;;;;;22.47;12.57;;;9.90;47.70;;;8.15;40.60;101046.16;10274671;28;98047;-79
2022/03/15 19:37:05;;;;;;;26.47;12.07;;;9.70;47.90;;;8.06;40.53;101033.72;10289413;28;96762;-81
2022/03/15 19:42:09;;;;;;;31.60;14.27;;;9.70;47.90;;;7.97;40.26;101034.50;10257768;28;96609;-84
2022/03/15 19:47:13;;;;;;;20.37;11.63;;;9.60;47.70;;;7.89;40.40;101026.38;10266703;28;96602;-82
2022/03/15 19:52:16;;;;;;;23.07;11.47;;;9.60;47.90;;;7.81;40.38;101020.91;10291177;28;97681;-81
2022/03/15 19:57:27;;;;;;;35.47;14.87;;;9.50;47.80;;;7.71;40.31;101020.84;10292042;28;96524;-80
2022/03/15 20:02:35;;;;;;;;;;;9.40;47.90;;;7.60;41.12;100994.44;10289599;28;96603;-80
2022/03/15 20:07:41;;;;;;;23.23;11.60;;;9.30;49.80;;;7.51;40.94;100990.78;10269871;28;96703;-81
2022/03/15 20:12:44;;;;;;;27.20;12.67;;;9.20;48.20;;;7.43;41.04;100978.19;10272976;28;96975;-81
2022/03/15 20:17:47;;;;;;;25.97;12.97;;;9.10;48.10;;;7.36;40.82;100976.19;10288168;28;96487;-82
2022/03/15 20:22:56;;;;;;;35.70;16.60;;;9.00;48.40;;;7.31;41.07;100962.50;10288957;28;96972;-81
2022/03/15 20:28:00;;;;;;;32.50;13.67;;;9.00;48.40;;;7.24;40.84;100954.25;10290495;28;96530;-81
2022/03/15 20:33:06;;;;;;;23.93;11.43;;;8.90;48.30;;;7.24;40.98;100957.72;10288111;28;98372;-82
2022/03/15 20:38:09;;;;;;;18.90;9.20;;;8.90;48.40;;;7.19;41.14;100946.69;10289805;28;96581;-82
2022/03/15 20:48:35;;;;;;;18.17;8.33;;;8.80;48.90;;;7.11;41.83;100935.94;10290769;28;96720;-80
2022/03/15 20:53:43;;;;;;;16.63;8.77;;;8.70;49.00;;;7.05;42.36;100925.88;10281438;28;97963;-81
2022/03/15 20:58:46;;;;;;;18.93;9.37;;;8.70;49.20;;;6.98;42.07;100932.63;10277342;28;96763;-80
2022/03/15 21:03:50;;;;;;;20.63;9.37;;;8.60;49.40;;;6.94;41.81;100920.63;10295163;28;96631;-80
2022/03/15 21:08:55;;;;;;;17.07;9.73;;;8.60;49.20;;;6.88;42.24;100924.63;10279073;28;97417;-80